Time;durP1;ratioP1;P1;durP2;ratioP2;P2;SDS_P1;SDS_P2;PMS_P1;PMS_P2;Temp;Humidity;BMP_temperature;BMP_pressure;BME280_temperature;BME280_humidity;BME280_pressure;Samples;Min_cycle;Max_cycle;Signal;HPM_P1;HPM_P2
2023/07/23 00:00:14;;;;;;;7.53;5.03;;;14.60;99.90;;;;;;5013547;28;20100;-80
2023/07/23 00:02:40;;;;;;;9.82;4.97;;;14.60;99.90;;;;;;5008457;28;20565;-80
2023/07/23 00:05:06;;;;;;;10.13;6.03;;;14.60;99.90;;;;;;5004963;28;20116;-80
2023/07/23 00:07:32;;;;;;;12.38;5.50;;;14.60;99.90;;;;;;5004589;28;20050;-80
2023/07/23 00:09:57;;;;;;;10.55;5.28;;;14.60;99.90;;;;;;5004493;28;20038;-80
2023/07/23 00:12:23;;;;;;;7.63;5.70;;;14.70;99.90;;;;;;5001251;28;20391;-80
2023/07/23 00:14:50;;;;;;;7.78;5.45;;;14.60;99.90;;;;;;5001072;28;20065;-80
2023/07/23 00:17:16;;;;;;;7.43;5.40;;;14.60;99.90;;;;;;4987495;28;20679;-80
2023/07/23 00:19:41;;;;;;;10.00;5.50;;;14.50;99.90;;;;;;5005036;28;20045;-81
2023/07/23 00:22:07;;;;;;;9.32;5.28;;;14.50;99.90;;;;;;5002314;28;20041;-80
2023/07/23 00:24:33;;;;;;;8.18;5.55;;;14.50;99.90;;;;;;4984030;28;20053;-81
2023/07/23 00:26:58;;;;;;;8.60;5.55;;;14.50;99.90;;;;;;5001743;28;20513;-80
2023/07/23 00:29:24;;;;;;;9.13;6.25;;;14.50;99.90;;;;;;5004548;28;20038;-80
2023/07/23 00:31:51;;;;;;;11.68;5.85;;;14.60;99.90;;;;;;4970811;28;20096;-80
2023/07/23 00:34:17;;;;;;;9.65;5.57;;;14.40;99.90;;;;;;5001808;28;20050;-80
2023/07/23 00:36:42;;;;;;;7.35;5.93;;;15.20;99.90;;;;;;4983591;28;20038;-79
2023/07/23 00:39:08;;;;;;;6.60;4.88;;;14.90;99.90;;;;;;4969661;28;20119;-80
2023/07/23 00:41:33;;;;;;;8.25;5.32;;;14.40;99.90;;;;;;5004419;28;20045;-81
2023/07/23 00:44:00;;;;;;;8.18;5.82;;;14.40;99.90;;;;;;5003485;28;20119;-80
2023/07/23 00:46:25;;;;;;;11.90;6.10;;;14.40;99.90;;;;;;5001109;28;20042;-80
2023/07/23 00:48:51;;;;;;;7.80;5.60;;;14.40;99.90;;;;;;4983091;28;20061;-80
2023/07/23 00:51:17;;;;;;;10.73;5.53;;;14.40;99.90;;;;;;5003513;28;20568;-80
2023/07/23 00:53:44;;;;;;;9.68;5.47;;;14.70;99.90;;;;;;5004065;28;20042;-81
2023/07/23 00:56:10;;;;;;;8.80;6.28;;;15.20;99.90;;;;;;5002110;28;20247;-80
2023/07/23 00:58:36;;;;;;;10.30;6.05;;;14.40;99.90;;;;;;5000996;28;20530;-80
2023/07/23 01:01:02;;;;;;;10.68;6.70;;;15.40;99.90;;;;;;4984057;28;20483;-81
2023/07/23 01:03:36;;;;;;;8.70;5.63;;;14.40;99.90;;;;;;5006533;28;20081;-81
2023/07/23 01:06:14;;;;;;;8.82;6.45;;;14.40;99.90;;;;;;4995248;28;20150;-82
2023/07/23 01:08:43;;;;;;;9.63;6.57;;;14.40;99.90;;;;;;4999024;28;20117;-81
2023/07/23 01:11:10;;;;;;;9.95;6.15;;;14.40;99.90;;;;;;5001607;28;20100;-82
2023/07/23 01:13:37;;;;;;;11.13;6.40;;;14.40;99.90;;;;;;5003968;28;20387;-81
2023/07/23 01:16:07;;;;;;;7.57;6.10;;;14.50;99.90;;;;;;5006336;28;20073;-81
2023/07/23 01:18:43;;;;;;;12.02;5.75;;;14.40;99.90;;;;;;4998096;28;20057;-80
2023/07/23 01:21:12;;;;;;;10.85;6.22;;;14.40;99.90;;;;;;5002432;28;20042;-80
2023/07/23 01:23:37;;;;;;;8.02;5.78;;;14.40;99.90;;;;;;4998450;28;20057;-80
2023/07/23 01:26:04;;;;;;;10.07;6.40;;;14.40;99.90;;;;;;4966518;28;20070;-81
2023/07/23 01:28:30;;;;;;;7.80;5.88;;;14.70;99.90;;;;;;5004034;28;20123;-80
2023/07/23 01:30:55;;;;;;;6.47;5.40;;;14.40;99.90;;;;;;5003959;28;20061;-81
2023/07/23 01:33:22;;;;;;;14.13;6.43;;;14.30;99.90;;;;;;4982845;28;20065;-81
2023/07/23 01:35:54;;;;;;;9.38;6.38;;;14.30;99.90;;;;;;5000724;28;20026;-81
2023/07/23 01:38:21;;;;;;;9.48;6.43;;;14.30;99.90;;;;;;5002095;28;20042;-80
2023/07/23 01:40:47;;;;;;;7.85;6.10;;;15.20;99.90;;;;;;4970748;28;20474;-80
2023/07/23 01:43:14;;;;;;;11.13;8.05;;;14.30;99.90;;;;;;5003124;28;20056;-80
2023/07/23 01:45:46;;;;;;;13.30;8.20;;;14.30;99.90;;;;;;5009979;28;20038;-81
2023/07/23 01:48:12;;;;;;;11.10;6.82;;;15.90;99.90;;;;;;5008054;28;20088;-80
2023/07/23 01:50:39;;;;;;;7.90;5.80;;;15.40;99.90;;;;;;5004406;28;20398;-81
2023/07/23 01:53:05;;;;;;;9.48;6.13;;;14.30;99.90;;;;;;5002260;28;20136;-80
2023/07/23 01:55:31;;;;;;;7.25;5.70;;;14.90;99.90;;;;;;5000385;28;20046;-80
2023/07/23 01:57:56;;;;;;;9.35;5.63;;;14.30;99.90;;;;;;5000272;28;20038;-80
2023/07/23 02:00:22;;;;;;;6.50;5.80;;;14.30;99.90;;;;;;4984175;28;20126;-80
2023/07/23 02:02:48;;;;;;;9.77;6.13;;;15.60;99.90;;;;;;5003305;28;20042;-80
2023/07/23 02:05:13;;;;;;;6.35;5.55;;;15.00;99.90;;;;;;4984538;28;20053;-80
2023/07/23 02:07:39;;;;;;;9.93;5.80;;;14.30;99.90;;;;;;4981932;28;20051;-80
2023/07/23 02:10:08;;;;;;;6.90;5.45;;;14.30;99.90;;;;;;5000169;28;20068;-80
2023/07/23 02:12:34;;;;;;;8.52;5.40;;;14.40;99.90;;;;;;5002908;28;20046;-81
2023/07/23 02:15:00;;;;;;;8.23;6.47;;;14.30;99.90;;;;;;5002767;28;20053;-80
2023/07/23 02:17:25;;;;;;;7.32;5.07;;;14.30;99.90;;;;;;5000762;28;20042;-80
2023/07/23 02:19:51;;;;;;;10.15;5.68;;;14.30;99.90;;;;;;4999892;28;20520;-80
2023/07/23 02:22:17;;;;;;;10.18;6.15;;;14.30;99.90;;;;;;5000189;28;20046;-79
2023/07/23 02:24:43;;;;;;;6.50;4.95;;;14.30;99.90;;;;;;5003303;28;20038;-80
2023/07/23 02:27:10;;;;;;;8.98;5.63;;;14.30;99.90;;;;;;4985396;28;20512;-80
2023/07/23 02:29:36;;;;;;;6.68;5.00;;;14.30;99.90;;;;;;5002341;28;20065;-80
2023/07/23 02:32:02;;;;;;;8.90;5.68;;;14.30;99.90;;;;;;5003505;28;20406;-80
2023/07/23 02:34:28;;;;;;;5.97;5.22;;;14.30;99.90;;;;;;5005865;28;20099;-80
2023/07/23 02:36:54;;;;;;;7.95;5.30;;;14.30;99.90;;;;;;5007522;28;20519;-80
2023/07/23 02:39:19;;;;;;;8.38;5.35;;;14.30;99.90;;;;;;5005294;28;20060;-80
2023/07/23 02:41:45;;;;;;;8.13;5.78;;;14.30;99.90;;;;;;5002870;28;20076;-80
2023/07/23 02:44:12;;;;;;;6.18;5.05;;;14.30;99.90;;;;;;5004334;28;20049;-80
2023/07/23 02:46:38;;;;;;;9.23;5.60;;;14.50;99.90;;;;;;5025779;28;20046;-80
2023/07/23 02:49:06;;;;;;;8.32;5.93;;;14.30;99.90;;;;;;4990986;28;20586;-80
2023/07/23 02:51:32;;;;;;;7.30;5.30;;;15.30;99.90;;;;;;5003785;28;20030;-81
2023/07/23 02:53:58;;;;;;;8.50;5.43;;;14.30;99.90;;;;;;5003038;28;20042;-79
2023/07/23 02:56:23;;;;;;;8.77;5.32;;;14.30;99.90;;;;;;4986944;28;20050;-80
2023/07/23 02:58:49;;;;;;;8.18;5.60;;;15.20;99.90;;;;;;4989108;28;20030;-80
2023/07/23 03:01:15;;;;;;;6.82;5.47;;;14.30;99.90;;;;;;5005897;28;20121;-81
2023/07/23 03:03:40;;;;;;;9.30;5.20;;;14.30;99.90;;;;;;5002253;28;20532;-80
2023/07/23 03:06:07;;;;;;;10.65;6.45;;;15.40;99.90;;;;;;5003036;28;20461;-80
2023/07/23 03:08:32;;;;;;;7.63;5.43;;;14.30;99.90;;;;;;5006056;28;20120;-80
2023/07/23 03:10:58;;;;;;;7.57;5.68;;;14.30;99.90;;;;;;4999576;28;20130;-80
2023/07/23 03:13:24;;;;;;;6.32;5.47;;;14.30;99.90;;;;;;5002661;28;20136;-81
2023/07/23 03:15:49;;;;;;;6.47;5.13;;;14.90;99.90;;;;;;5002965;28;20089;-79
2023/07/23 03:18:15;;;;;;;7.70;5.43;;;14.30;99.90;;;;;;5002530;28;20046;-80
2023/07/23 03:20:41;;;;;;;7.38;5.18;;;14.30;99.90;;;;;;5006322;28;20042;-80
2023/07/23 03:23:06;;;;;;;10.38;5.93;;;14.30;99.90;;;;;;5005733;28;20125;-80
2023/07/23 03:25:32;;;;;;;9.05;5.47;;;14.30;99.90;;;;;;5003085;28;20465;-79
2023/07/23 03:27:59;;;;;;;7.03;5.88;;;14.30;99.90;;;;;;5002766;28;20043;-79
2023/07/23 03:30:27;;;;;;;8.40;6.57;;;15.30;99.90;;;;;;4987392;28;20053;-80
2023/07/23 03:32:54;;;;;;;9.27;6.20;;;14.30;99.90;;;;;;4998209;28;20041;-78
2023/07/23 03:35:20;;;;;;;7.05;5.80;;;14.30;99.90;;;;;;5007060;28;20046;-80
2023/07/23 03:37:46;;;;;;;7.18;5.45;;;14.30;99.90;;;;;;5001810;28;20060;-79
2023/07/23 03:40:11;;;;;;;8.00;6.05;;;14.60;99.90;;;;;;5001456;28;20386;-79
2023/07/23 03:42:37;;;;;;;9.88;6.20;;;14.30;99.90;;;;;;4987734;28;20493;-80
2023/07/23 03:45:03;;;;;;;8.68;5.82;;;14.30;99.90;;;;;;5005223;28;20567;-80
2023/07/23 03:47:29;;;;;;;12.02;6.60;;;14.30;99.90;;;;;;4986225;28;20034;-80
2023/07/23 03:49:55;;;;;;;9.85;6.07;;;14.30;99.90;;;;;;5002301;28;20053;-81
2023/07/23 03:52:21;;;;;;;11.40;6.95;;;14.90;99.90;;;;;;5001888;28;20046;-80
2023/07/23 03:54:47;;;;;;;8.38;6.38;;;14.30;99.90;;;;;;4987752;28;20033;-80
2023/07/23 03:57:13;;;;;;;14.95;6.60;;;14.90;99.90;;;;;;4987930;28;20050;-80
2023/07/23 03:59:40;;;;;;;12.00;7.03;;;15.00;99.90;;;;;;5001735;28;20407;-80
2023/07/23 04:02:07;;;;;;;9.75;7.03;;;14.30;99.90;;;;;;5001573;28;20054;-80
2023/07/23 04:04:34;;;;;;;8.40;6.55;;;14.60;99.90;;;;;;5004037;28;20058;-80
2023/07/23 04:07:00;;;;;;;11.18;6.80;;;14.30;99.90;;;;;;4987387;28;20050;-80
2023/07/23 04:09:25;;;;;;;10.13;6.15;;;14.40;99.90;;;;;;5004176;28;20056;-80
2023/07/23 04:11:51;;;;;;;10.57;6.47;;;14.30;99.90;;;;;;5006638;28;20042;-80
2023/07/23 04:14:17;;;;;;;8.90;6.40;;;14.30;99.90;;;;;;5012108;28;20106;-80
2023/07/23 04:16:42;;;;;;;8.85;6.28;;;14.30;99.90;;;;;;5013393;28;20035;-80
2023/07/23 04:19:08;;;;;;;9.10;6.45;;;14.30;99.90;;;;;;5002333;28;20043;-80
2023/07/23 04:21:34;;;;;;;7.95;6.40;;;14.30;99.90;;;;;;5002883;28;20046;-80
2023/07/23 04:24:00;;;;;;;12.10;7.03;;;14.30;99.90;;;;;;5004788;28;20410;-80
2023/07/23 04:26:30;;;;;;;13.18;6.80;;;14.30;99.90;;;;;;4986360;28;20496;-79
2023/07/23 04:28:56;;;;;;;7.85;6.05;;;14.40;99.90;;;;;;4997804;28;20524;-80
2023/07/23 04:31:22;;;;;;;10.88;6.68;;;14.30;99.90;;;;;;5004609;28;20081;-80
2023/07/23 04:33:47;;;;;;;8.45;6.75;;;14.30;99.90;;;;;;5000944;28;20113;-79
2023/07/23 04:36:14;;;;;;;9.43;6.95;;;14.30;99.90;;;;;;5001148;28;20525;-80
2023/07/23 04:38:41;;;;;;;12.10;6.13;;;15.40;99.90;;;;;;5003666;28;20050;-80
2023/07/23 04:41:07;;;;;;;15.30;7.07;;;14.30;99.90;;;;;;4986325;28;20045;-80
2023/07/23 04:43:34;;;;;;;7.47;6.43;;;14.30;99.90;;;;;;4985291;28;20108;-81
2023/07/23 04:46:00;;;;;;;9.23;6.28;;;14.30;99.90;;;;;;5003952;28;20271;-80
2023/07/23 04:48:26;;;;;;;6.85;6.15;;;14.60;99.90;;;;;;5000707;28;20077;-79
2023/07/23 04:51:02;;;;;;;7.57;6.25;;;14.30;99.90;;;;;;4983159;28;20117;-80
2023/07/23 04:53:28;;;;;;;7.70;6.07;;;14.30;99.90;;;;;;5001400;28;20123;-80
2023/07/23 04:55:55;;;;;;;10.45;7.25;;;15.50;99.90;;;;;;5004420;28;20044;-80
2023/07/23 04:58:21;;;;;;;15.07;6.45;;;14.30;99.90;;;;;;4987242;28;20527;-80
2023/07/23 05:00:47;;;;;;;9.88;7.07;;;15.30;99.90;;;;;;4983318;28;20046;-80
2023/07/23 05:03:13;;;;;;;8.48;5.90;;;14.30;99.90;;;;;;5000137;28;20046;-80
2023/07/23 05:05:44;;;;;;;9.32;6.50;;;14.30;99.90;;;;;;5002983;28;20122;-81
2023/07/23 05:08:10;;;;;;;9.27;6.22;;;14.30;99.90;;;;;;5006249;28;20050;-81
2023/07/23 05:10:36;;;;;;;10.55;6.15;;;14.40;99.90;;;;;;4982939;28;20173;-81
2023/07/23 05:13:02;;;;;;;10.60;6.80;;;14.30;99.90;;;;;;5000884;28;20046;-81
2023/07/23 05:15:28;;;;;;;9.40;5.78;;;15.20;99.90;;;;;;4985009;28;20049;-81
2023/07/23 05:17:54;;;;;;;13.45;6.65;;;14.30;99.90;;;;;;5008516;28;20093;-81
2023/07/23 05:20:19;;;;;;;13.68;6.55;;;14.30;99.90;;;;;;4995076;28;20464;-81
2023/07/23 05:22:45;;;;;;;8.40;7.22;;;14.30;99.90;;;;;;4984734;28;20052;-81
2023/07/23 05:25:11;;;;;;;10.20;6.85;;;14.40;99.90;;;;;;4983074;28;20133;-81
2023/07/23 05:27:37;;;;;;;14.68;7.30;;;14.30;99.90;;;;;;5000383;28;20438;-82
2023/07/23 05:30:06;;;;;;;12.57;7.75;;;15.60;99.90;;;;;;4981563;28;20038;-80
2023/07/23 05:32:32;;;;;;;11.25;7.90;;;14.40;99.90;;;;;;5006885;28;20049;-81
2023/07/23 05:34:58;;;;;;;9.23;7.47;;;14.40;99.90;;;;;;5003424;28;20056;-81
2023/07/23 05:37:26;;;;;;;14.55;8.07;;;14.40;99.90;;;;;;4987064;28;20046;-81
2023/07/23 05:39:53;;;;;;;12.15;8.30;;;14.40;99.90;;;;;;5004899;28;20053;-80
2023/07/23 05:42:19;;;;;;;12.10;7.65;;;15.20;99.90;;;;;;4969747;28;20046;-81
2023/07/23 05:44:45;;;;;;;10.98;8.10;;;14.40;99.90;;;;;;5020799;28;20074;-82
2023/07/23 05:47:10;;;;;;;12.93;7.53;;;14.40;99.90;;;;;;4972575;28;20563;-80
2023/07/23 05:49:36;;;;;;;10.00;8.40;;;14.40;99.90;;;;;;4986342;28;20052;-80
2023/07/23 05:52:02;;;;;;;11.73;7.88;;;14.40;99.90;;;;;;5001432;28;20043;-81
2023/07/23 05:54:28;;;;;;;10.05;8.10;;;14.40;99.90;;;;;;4983557;28;20050;-81
2023/07/23 05:56:54;;;;;;;11.60;8.13;;;14.40;99.90;;;;;;5005693;28;20092;-81
2023/07/23 05:59:20;;;;;;;13.48;8.55;;;14.50;99.90;;;;;;5004047;28;20398;-82
2023/07/23 06:01:46;;;;;;;9.52;7.95;;;14.50;99.90;;;;;;5006056;28;20151;-81
2023/07/23 06:04:12;;;;;;;10.75;8.15;;;14.50;99.90;;;;;;4992026;28;20483;-81
2023/07/23 06:06:37;;;;;;;11.13;8.25;;;15.70;99.90;;;;;;4987032;28;20097;-80
2023/07/23 06:09:06;;;;;;;10.07;8.07;;;15.90;99.90;;;;;;5007264;28;20125;-81
2023/07/23 06:11:32;;;;;;;11.43;7.75;;;14.50;99.90;;;;;;5007358;28;20042;-81
2023/07/23 06:14:00;;;;;;;8.77;7.53;;;14.80;99.90;;;;;;5004368;28;20076;-81
2023/07/23 06:16:26;;;;;;;11.90;7.97;;;14.80;99.90;;;;;;4987678;28;20057;-80
2023/07/23 06:18:52;;;;;;;10.77;7.68;;;14.60;99.90;;;;;;4989663;28;21383;-81
2023/07/23 06:21:17;;;;;;;11.75;8.30;;;14.60;99.90;;;;;;5006899;28;20490;-81
2023/07/23 06:23:43;;;;;;;9.73;8.30;;;14.60;99.90;;;;;;5008317;28;20034;-81
2023/07/23 06:26:09;;;;;;;11.00;8.13;;;14.60;99.90;;;;;;5007696;28;20042;-81
2023/07/23 06:28:34;;;;;;;14.00;8.95;;;14.60;99.90;;;;;;5006482;28;20034;-81
2023/07/23 06:31:00;;;;;;;12.55;8.35;;;14.60;99.90;;;;;;5003694;28;20042;-81
2023/07/23 06:33:27;;;;;;;14.02;8.27;;;14.70;99.90;;;;;;5003267;28;20042;-80
2023/07/23 06:35:53;;;;;;;10.18;9.15;;;14.70;99.90;;;;;;5007012;28;20394;-81
2023/07/23 06:38:18;;;;;;;13.00;8.85;;;14.70;99.90;;;;;;5007930;28;20094;-81
2023/07/23 06:40:51;;;;;;;9.80;8.13;;;16.10;99.90;;;;;;5007532;28;20042;-81
2023/07/23 06:43:19;;;;;;;9.55;8.15;;;14.70;99.90;;;;;;5007812;28;20133;-81
2023/07/23 06:45:46;;;;;;;12.48;8.95;;;14.80;99.90;;;;;;5016684;28;20470;-81
2023/07/23 06:48:13;;;;;;;13.95;8.50;;;14.70;99.90;;;;;;5008196;28;20055;-81
2023/07/23 06:50:39;;;;;;;12.93;9.02;;;14.80;99.90;;;;;;5006458;28;20050;-81
2023/07/23 06:53:05;;;;;;;13.65;9.35;;;15.00;99.90;;;;;;5010757;28;20478;-81
2023/07/23 06:55:35;;;;;;;10.23;8.32;;;14.90;99.90;;;;;;5006085;28;20045;-81
2023/07/23 06:58:00;;;;;;;11.35;8.95;;;14.90;99.90;;;;;;5003725;28;20135;-81
2023/07/23 07:00:26;;;;;;;17.27;9.82;;;14.90;99.90;;;;;;5003286;28;20106;-81
2023/07/23 07:02:51;;;;;;;13.90;9.43;;;14.90;99.90;;;;;;5007460;28;20070;-81
2023/07/23 07:05:17;;;;;;;15.05;8.68;;;14.90;99.90;;;;;;4982160;28;20049;-81
2023/07/23 07:07:43;;;;;;;13.65;9.32;;;14.90;99.90;;;;;;5007208;28;20034;-81
2023/07/23 07:10:09;;;;;;;13.60;9.70;;;15.00;99.90;;;;;;5006457;28;20441;-81
2023/07/23 07:12:34;;;;;;;11.70;8.80;;;15.00;99.90;;;;;;5015413;28;20105;-81
2023/07/23 07:15:00;;;;;;;12.73;9.27;;;15.00;99.90;;;;;;5013422;28;20049;-81
2023/07/23 07:17:26;;;;;;;12.20;10.07;;;14.90;99.90;;;;;;5009630;28;20374;-80
2023/07/23 07:19:51;;;;;;;15.23;8.98;;;16.00;99.90;;;;;;5005388;28;20482;-81
2023/07/23 07:22:17;;;;;;;14.00;9.27;;;15.00;99.90;;;;;;5002941;28;20070;-81
2023/07/23 07:24:43;;;;;;;13.68;9.68;;;15.00;99.90;;;;;;5002185;28;20081;-81
2023/07/23 07:27:09;;;;;;;16.42;9.70;;;15.00;99.90;;;;;;4988007;28;20409;-81
2023/07/23 07:29:39;;;;;;;15.57;10.30;;;15.00;99.90;;;;;;5006046;28;20084;-81
2023/07/23 07:32:09;;;;;;;12.70;9.40;;;15.10;99.90;;;;;;5001766;28;20061;-81
2023/07/23 07:34:34;;;;;;;15.20;9.75;;;15.10;99.90;;;;;;5002512;28;20038;-81
2023/07/23 07:37:00;;;;;;;12.25;9.88;;;16.30;99.90;;;;;;5004205;28;20135;-81
2023/07/23 07:39:26;;;;;;;12.60;9.98;;;15.10;99.90;;;;;;5005646;28;20555;-80
2023/07/23 07:41:56;;;;;;;17.65;10.48;;;15.10;99.90;;;;;;5004303;28;20038;-80
2023/07/23 07:44:22;;;;;;;14.55;9.43;;;15.10;99.90;;;;;;5001940;28;20122;-80
2023/07/23 07:46:48;;;;;;;18.65;10.32;;;15.70;99.90;;;;;;5003239;28;20391;-79
2023/07/23 07:49:14;;;;;;;14.65;10.02;;;15.70;99.90;;;;;;5005520;28;20042;-79
2023/07/23 07:51:43;;;;;;;13.75;9.38;;;15.20;99.90;;;;;;5004740;28;20053;-79
2023/07/23 07:54:09;;;;;;;16.65;10.23;;;15.20;99.90;;;;;;5001718;28;20047;-79
2023/07/23 07:56:35;;;;;;;13.57;10.23;;;15.20;99.90;;;;;;5002266;28;20038;-80
2023/07/23 07:59:02;;;;;;;14.55;9.98;;;15.20;99.90;;;;;;4983783;28;20046;-80
2023/07/23 08:01:29;;;;;;;13.15;9.73;;;15.30;99.90;;;;;;5001894;28;20061;-79
2023/07/23 08:03:54;;;;;;;17.13;8.95;;;15.20;99.90;;;;;;4985681;28;20121;-80
2023/07/23 08:06:22;;;;;;;13.80;10.05;;;15.30;99.90;;;;;;5004810;28;20109;-80
2023/07/23 08:08:50;;;;;;;14.68;9.48;;;15.30;99.90;;;;;;5004897;28;20042;-79
2023/07/23 08:11:16;;;;;;;14.93;9.60;;;15.30;99.90;;;;;;5001521;28;20394;-80
2023/07/23 08:13:42;;;;;;;16.38;9.45;;;15.30;99.90;;;;;;4983721;28;20046;-79
2023/07/23 08:16:08;;;;;;;16.38;10.38;;;15.40;99.90;;;;;;5004670;28;20037;-80
2023/07/23 08:18:34;;;;;;;12.85;9.13;;;15.50;99.90;;;;;;5005067;28;20116;-80
2023/07/23 08:20:59;;;;;;;16.40;9.65;;;15.30;99.90;;;;;;5002743;28;20133;-80
2023/07/23 08:23:25;;;;;;;17.55;9.55;;;15.30;99.90;;;;;;5001143;28;20684;-79
2023/07/23 08:25:55;;;;;;;15.85;10.07;;;15.40;99.90;;;;;;5001783;28;20093;-80
2023/07/23 08:28:25;;;;;;;15.20;9.88;;;15.40;99.90;;;;;;5004376;28;20088;-80
2023/07/23 08:30:51;;;;;;;16.83;11.02;;;15.80;99.90;;;;;;5004686;28;20485;-80
2023/07/23 08:33:22;;;;;;;12.50;11.15;;;15.40;99.90;;;;;;5000520;28;20038;-79
2023/07/23 08:35:48;;;;;;;12.20;10.02;;;15.50;99.90;;;;;;5001383;28;20030;-79
2023/07/23 08:38:15;;;;;;;14.43;10.73;;;15.40;99.90;;;;;;4987191;28;20046;-79
2023/07/23 08:40:43;;;;;;;12.13;10.75;;;15.30;99.90;;;;;;5007013;28;20049;-79
2023/07/23 08:43:17;;;;;;;11.43;10.10;;;15.30;99.90;;;;;;5012484;28;20056;-80
2023/07/23 08:46:20;;;;;;;12.15;10.05;;;15.30;99.90;;;;;;5002096;28;20038;-80
2023/07/23 08:48:58;;;;;;;12.70;9.82;;;15.30;99.90;;;;;;5003656;28;20080;-79
2023/07/23 08:51:25;;;;;;;10.98;9.88;;;15.40;99.90;;;;;;5005380;28;20034;-80
2023/07/23 08:53:52;;;;;;;12.38;9.38;;;15.30;99.90;;;;;;5001435;28;20045;-79
2023/07/23 08:56:18;;;;;;;11.55;9.88;;;15.30;99.90;;;;;;5003857;28;20034;-80
2023/07/23 08:58:45;;;;;;;10.48;8.68;;;15.80;99.90;;;;;;4986897;28;20034;-80
2023/07/23 09:01:15;;;;;;;11.70;9.32;;;15.30;99.90;;;;;;5000605;28;20498;-80
2023/07/23 09:03:41;;;;;;;12.10;9.55;;;15.40;99.90;;;;;;5001005;28;20072;-79
2023/07/23 09:06:08;;;;;;;11.02;9.73;;;15.40;99.90;;;;;;5002759;28;20486;-80
2023/07/23 09:08:34;;;;;;;13.23;10.57;;;15.40;99.90;;;;;;5003630;28;20049;-80
2023/07/23 09:11:04;;;;;;;11.80;9.48;;;15.40;99.90;;;;;;5002921;28;20482;-79
2023/07/23 09:13:37;;;;;;;15.40;10.70;;;16.20;99.90;;;;;;4983347;28;20054;-80
2023/07/23 09:16:06;;;;;;;11.68;10.02;;;15.40;99.90;;;;;;4983540;28;20082;-79
2023/07/23 09:18:40;;;;;;;17.13;10.63;;;15.40;99.90;;;;;;5004041;28;20473;-79
2023/07/23 09:21:06;;;;;;;12.82;10.00;;;15.40;99.90;;;;;;5002181;28;20080;-79
2023/07/23 09:23:33;;;;;;;20.63;10.80;;;15.40;99.90;;;;;;5000293;28;20093;-79
2023/07/23 09:26:00;;;;;;;13.45;9.57;;;15.40;99.90;;;;;;4966965;28;20038;-79
2023/07/23 09:28:26;;;;;;;11.50;9.38;;;15.50;99.90;;;;;;5001096;28;20129;-79
2023/07/23 09:30:59;;;;;;;11.25;9.65;;;15.50;99.90;;;;;;4999555;28;20445;-81
2023/07/23 09:33:33;;;;;;;11.60;9.27;;;15.50;99.90;;;;;;4975975;28;20046;-80
2023/07/23 09:36:00;;;;;;;11.57;8.70;;;15.50;99.90;;;;;;5000904;28;20121;-80
2023/07/23 09:38:28;;;;;;;12.05;9.30;;;16.80;99.90;;;;;;5002188;28;20088;-80
2023/07/23 09:40:55;;;;;;;10.98;9.18;;;15.60;99.90;;;;;;4986073;28;20041;-80
2023/07/23 09:43:24;;;;;;;13.30;9.20;;;15.50;99.90;;;;;;5000140;28;20306;-80
2023/07/23 09:45:50;;;;;;;10.98;8.68;;;15.90;99.90;;;;;;5000383;28;20065;-80
2023/07/23 09:48:17;;;;;;;12.45;9.13;;;15.50;99.90;;;;;;5002632;28;20545;-81
2023/07/23 09:50:45;;;;;;;12.75;9.27;;;15.50;99.90;;;;;;5003038;28;20030;-80
2023/07/23 09:53:15;;;;;;;12.43;9.05;;;15.70;99.90;;;;;;5001161;28;20050;-80
2023/07/23 09:55:42;;;;;;;13.68;9.50;;;15.60;99.90;;;;;;5000167;28;20046;-80
2023/07/23 09:58:09;;;;;;;11.20;9.98;;;15.50;99.90;;;;;;4999462;28;20073;-80
2023/07/23 10:00:36;;;;;;;11.70;9.70;;;16.50;99.90;;;;;;4999886;28;20043;-80
2023/07/23 10:03:03;;;;;;;12.88;8.95;;;15.50;99.90;;;;;;5000413;28;20125;-80
2023/07/23 10:05:29;;;;;;;11.13;8.75;;;15.60;99.90;;;;;;5003092;28;20038;-80
2023/07/23 10:07:56;;;;;;;12.88;9.52;;;15.50;99.90;;;;;;5003783;28;20066;-80
2023/07/23 10:10:21;;;;;;;12.13;9.77;;;15.50;99.90;;;;;;5013702;28;20038;-80
2023/07/23 10:12:47;;;;;;;15.50;9.65;;;15.60;99.90;;;;;;5008469;28;20401;-81
2023/07/23 10:15:13;;;;;;;10.18;8.52;;;15.50;99.90;;;;;;5001745;28;20049;-80
2023/07/23 10:17:54;;;;;;;10.50;8.80;;;15.60;99.90;;;;;;5005351;28;20041;-80
2023/07/23 10:20:21;;;;;;;10.32;8.30;;;15.60;99.90;;;;;;4982619;28;20050;-80
2023/07/23 10:22:48;;;;;;;11.23;8.68;;;15.60;99.90;;;;;;4997880;28;20548;-80
2023/07/23 10:25:25;;;;;;;13.60;9.75;;;15.60;99.90;;;;;;5001552;28;20060;-80
2023/07/23 10:28:03;;;;;;;11.40;9.07;;;15.60;99.90;;;;;;4999693;28;20129;-80
2023/07/23 10:30:30;;;;;;;13.00;9.15;;;15.60;99.90;;;;;;4987827;28;20403;-80
2023/07/23 10:33:11;;;;;;;12.30;8.80;;;15.60;99.90;;;;;;4998563;28;20065;-80
2023/07/23 10:35:55;;;;;;;11.85;8.55;;;15.70;99.90;;;;;;4982824;28;20046;-80
2023/07/23 10:38:29;;;;;;;12.40;8.90;;;15.70;99.90;;;;;;5003363;28;20054;-80
2023/07/23 10:40:54;;;;;;;10.23;8.88;;;15.80;99.90;;;;;;4995380;28;20049;-81
2023/07/23 10:43:20;;;;;;;10.80;8.80;;;15.70;99.90;;;;;;5002039;28;20042;-81
2023/07/23 10:46:09;;;;;;;11.93;9.02;;;15.80;99.90;;;;;;5003274;28;20037;-80
2023/07/23 10:48:52;;;;;;;11.13;8.32;;;15.80;99.90;;;;;;4974676;28;20061;-81
2023/07/23 10:51:22;;;;;;;13.07;8.75;;;15.80;99.90;;;;;;5004907;28;20065;-81
2023/07/23 10:54:02;;;;;;;12.10;8.88;;;15.80;99.90;;;;;;5005960;28;20065;-81
2023/07/23 10:56:38;;;;;;;13.80;8.15;;;16.90;99.90;;;;;;4985943;28;20091;-81
2023/07/23 10:59:10;;;;;;;12.00;8.35;;;15.80;99.90;;;;;;5002822;28;20267;-80
2023/07/23 11:01:40;;;;;;;16.02;8.27;;;15.80;99.90;;;;;;4961342;28;20422;-80
2023/07/23 11:04:14;;;;;;;11.50;9.07;;;15.90;99.90;;;;;;4969567;28;20078;-80
2023/07/23 11:06:57;;;;;;;13.93;8.43;;;16.00;99.90;;;;;;4996032;28;20061;-81
2023/07/23 11:09:26;;;;;;;10.20;8.25;;;15.90;99.90;;;;;;5004269;28;20442;-81
2023/07/23 11:11:53;;;;;;;9.45;7.53;;;15.90;99.90;;;;;;5005926;28;20077;-81
2023/07/23 11:14:28;;;;;;;11.43;9.18;;;16.00;99.90;;;;;;4980793;28;20129;-81
2023/07/23 11:16:54;;;;;;;;;;;16.00;99.90;;;;;;5006032;28;20397;-81
2023/07/23 11:19:21;;;;;;;10.57;8.55;;;16.00;99.90;;;;;;5004577;28;19926;-81
2023/07/23 11:21:52;;;;;;;12.32;8.98;;;16.00;99.90;;;;;;5002436;28;20077;-81
2023/07/23 11:24:19;;;;;;;13.15;9.00;;;16.10;99.90;;;;;;4986331;28;20108;-81
2023/07/23 11:26:44;;;;;;;15.55;8.60;;;16.50;99.90;;;;;;5005997;28;20042;-81
2023/07/23 11:29:11;;;;;;;11.88;8.70;;;16.10;99.90;;;;;;4997172;28;20077;-81
2023/07/23 11:31:37;;;;;;;12.10;9.27;;;16.10;99.90;;;;;;4988166;28;20413;-81
2023/07/23 11:34:06;;;;;;;10.77;8.07;;;16.10;99.90;;;;;;5005882;28;20050;-81
2023/07/23 11:36:36;;;;;;;13.48;9.20;;;16.10;99.90;;;;;;5002474;28;20505;-81
2023/07/23 11:39:03;;;;;;;10.93;8.20;;;16.10;99.90;;;;;;5016388;28;20038;-80
2023/07/23 11:41:41;;;;;;;9.75;8.02;;;17.10;99.90;;;;;;4994408;28;20046;-81
2023/07/23 11:44:08;;;;;;;11.02;8.20;;;16.10;99.90;;;;;;5005429;28;20084;-81
2023/07/23 11:46:36;;;;;;;11.88;8.48;;;16.10;99.90;;;;;;5002495;28;20117;-81
2023/07/23 11:49:03;;;;;;;8.93;7.65;;;16.50;99.90;;;;;;4991721;28;20038;-81
2023/07/23 11:51:31;;;;;;;10.80;7.68;;;16.10;99.90;;;;;;5002109;28;20052;-81
2023/07/23 11:54:07;;;;;;;11.68;8.27;;;16.40;99.90;;;;;;5002405;28;20038;-81
2023/07/23 11:56:38;;;;;;;8.93;7.75;;;16.10;99.90;;;;;;5005161;28;20054;-81
2023/07/23 11:59:06;;;;;;;12.77;7.88;;;16.10;99.90;;;;;;5004675;28;20038;-81
2023/07/23 12:01:35;;;;;;;11.35;7.88;;;17.20;99.90;;;;;;5004611;28;20061;-81
2023/07/23 12:04:03;;;;;;;13.43;8.27;;;16.10;99.90;;;;;;5005155;28;20383;-81
2023/07/23 12:06:30;;;;;;;10.48;8.15;;;16.10;99.90;;;;;;5006995;28;20125;-82
2023/07/23 12:08:56;;;;;;;8.70;7.72;;;16.20;99.90;;;;;;4984834;28;20064;-82
2023/07/23 12:11:23;;;;;;;9.48;7.57;;;16.20;99.90;;;;;;5001741;28;20557;-81
2023/07/23 12:13:54;;;;;;;9.55;7.60;;;16.10;99.90;;;;;;5005452;28;20042;-82
2023/07/23 12:16:33;;;;;;;8.68;7.05;;;16.10;99.90;;;;;;5004948;28;20034;-82
2023/07/23 12:19:08;;;;;;;7.72;6.93;;;16.20;99.90;;;;;;5010861;28;20062;-82
2023/07/23 12:21:36;;;;;;;10.88;6.90;;;16.20;99.90;;;;;;5008246;28;20054;-81
2023/07/23 12:24:18;;;;;;;9.00;7.20;;;16.30;99.90;;;;;;5004846;28;20045;-82
2023/07/23 12:26:45;;;;;;;6.95;5.85;;;16.30;99.90;;;;;;4980656;28;20402;-81
2023/07/23 12:29:11;;;;;;;8.25;7.15;;;16.30;99.90;;;;;;5004726;28;20052;-82
2023/07/23 12:31:42;;;;;;;8.10;6.15;;;16.40;99.90;;;;;;5001641;28;20042;-82
2023/07/23 12:34:11;;;;;;;7.03;6.32;;;16.50;99.90;;;;;;5000888;28;20074;-82
2023/07/23 12:36:37;;;;;;;8.38;6.82;;;16.50;99.90;;;;;;4970255;28;20085;-82
2023/07/23 12:39:05;;;;;;;7.30;6.47;;;16.60;99.90;;;;;;5004848;28;20037;-82
2023/07/23 12:41:30;;;;;;;7.28;6.57;;;16.70;99.90;;;;;;5002209;28;20076;-81